Time;durP1;ratioP1;P1;durP2;ratioP2;P2;SDS_P1;SDS_P2;PMS_P1;PMS_P2;Temp;Humidity;BMP_temperature;BMP_pressure;BME280_temperature;BME280_humidity;BME280_pressure;Samples;Min_cycle;Max_cycle;Signal;HPM_P1;HPM_P2
2023/12/05 00:01:40;;;;;;;19.48;11.15;;;19.50;51.40;;;;;;5113870;28;20028;-47
2023/12/05 00:04:05;;;;;;;27.27;12.23;;;19.40;51.40;;;;;;5113716;28;20069;-48
2023/12/05 00:07:11;;;;;;;20.67;11.60;;;19.40;51.50;;;;;;5113671;28;20032;-48
2023/12/05 00:09:37;;;;;;;20.48;11.07;;;19.40;51.50;;;;;;5113149;28;20108;-50
2023/12/05 00:12:03;;;;;;;21.75;11.20;;;19.40;51.50;;;;;;5113471;28;20058;-48
2023/12/05 00:14:29;;;;;;;26.60;11.00;;;19.40;51.50;;;;;;5113421;28;20020;-48
2023/12/05 00:16:55;;;;;;;23.23;12.18;;;19.40;52.00;;;;;;5113382;28;20035;-49
2023/12/05 00:19:21;;;;;;;26.95;11.70;;;19.40;51.50;;;;;;5112283;28;20403;-46
2023/12/05 00:21:46;;;;;;;18.88;11.07;;;19.40;51.50;;;;;;5112671;28;20024;-48
2023/12/05 00:24:12;;;;;;;21.33;12.00;;;19.30;51.40;;;;;;5113245;28;20027;-47
2023/12/05 00:26:38;;;;;;;24.73;12.00;;;19.30;51.50;;;;;;5112866;28;20034;-47
2023/12/05 00:29:04;;;;;;;17.45;10.25;;;19.40;51.20;;;;;;5111920;28;20038;-47
2023/12/05 00:31:30;;;;;;;20.65;11.15;;;19.30;51.10;;;;;;5112740;28;20107;-47
2023/12/05 00:33:55;;;;;;;21.23;11.73;;;19.30;51.40;;;;;;5113052;28;20505;-47
2023/12/05 00:36:21;;;;;;;19.48;11.85;;;19.30;51.10;;;;;;5113361;28;20032;-50
2023/12/05 00:38:47;;;;;;;19.10;10.68;;;19.30;51.20;;;;;;5112699;28;20028;-47
2023/12/05 00:41:13;;;;;;;18.58;11.05;;;19.30;51.10;;;;;;5112945;28;20066;-49
2023/12/05 00:43:39;;;;;;;19.52;11.10;;;19.30;51.10;;;;;;5111080;28;20052;-46
2023/12/05 00:46:04;;;;;;;19.95;11.57;;;19.30;51.20;;;;;;5112608;28;20031;-47
2023/12/05 00:48:30;;;;;;;19.10;11.32;;;19.30;51.10;;;;;;5111329;28;20024;-47
2023/12/05 00:50:56;;;;;;;21.58;11.98;;;19.30;51.10;;;;;;5111892;28;20020;-49
2023/12/05 00:53:22;;;;;;;20.65;11.07;;;19.30;51.10;;;;;;5112063;28;20169;-47
2023/12/05 00:55:48;;;;;;;21.52;11.20;;;19.30;51.30;;;;;;5111863;28;20027;-47
2023/12/05 00:58:14;;;;;;;19.70;11.18;;;19.30;51.20;;;;;;5112097;28;20020;-49
2023/12/05 01:00:39;;;;;;;20.63;10.98;;;19.30;51.00;;;;;;5112418;28;20030;-46
2023/12/05 01:03:05;;;;;;;19.35;10.90;;;19.30;51.20;;;;;;5094379;28;20391;-49
2023/12/05 01:05:33;;;;;;;20.65;11.52;;;19.30;51.30;;;;;;5111726;28;20027;-46
2023/12/05 01:07:58;;;;;;;18.25;11.50;;;19.30;51.00;;;;;;5111851;28;20027;-47
2023/12/05 01:10:24;;;;;;;18.10;11.20;;;19.20;51.00;;;;;;5094422;28;20034;-52
2023/12/05 01:12:50;;;;;;;19.23;10.95;;;19.20;51.30;;;;;;5111157;28;20023;-46
2023/12/05 01:15:16;;;;;;;18.55;11.10;;;19.20;50.60;;;;;;5111455;28;20108;-54
2023/12/05 01:17:42;;;;;;;18.85;10.43;;;19.20;51.00;;;;;;5111117;28;20035;-54
2023/12/05 01:20:11;;;;;;;18.20;10.90;;;19.20;51.10;;;;;;5112334;28;20461;-49
2023/12/05 01:22:38;;;;;;;19.33;10.48;;;19.20;51.00;;;;;;5111624;28;20030;-48
2023/12/05 01:25:05;;;;;;;23.50;10.82;;;19.20;50.80;;;;;;5112205;28;20024;-47
2023/12/05 01:27:31;;;;;;;19.17;10.45;;;19.30;51.30;;;;;;5111228;28;20032;-48
2023/12/05 01:29:57;;;;;;;17.02;10.45;;;19.20;51.10;;;;;;5111217;28;20440;-49
2023/12/05 01:32:23;;;;;;;21.20;10.32;;;19.20;51.70;;;;;;5093777;28;20139;-47
2023/12/05 01:34:48;;;;;;;19.05;11.48;;;19.20;51.20;;;;;;5111192;28;20028;-47
2023/12/05 01:37:14;;;;;;;18.38;11.20;;;19.20;51.20;;;;;;5092780;28;20031;-50
2023/12/05 01:39:40;;;;;;;23.73;11.10;;;19.20;51.30;;;;;;5111136;28;20027;-48
2023/12/05 01:42:06;;;;;;;19.65;11.15;;;19.20;51.10;;;;;;5109655;28;20023;-47
2023/12/05 01:44:32;;;;;;;18.67;10.60;;;19.10;51.10;;;;;;5134968;22;20023;-49
2023/12/05 01:46:59;;;;;;;22.00;10.63;;;19.20;51.20;;;;;;5101329;28;20043;-54
2023/12/05 01:49:24;;;;;;;18.08;10.45;;;19.20;51.30;;;;;;5102037;28;20107;-53
2023/12/05 01:51:52;;;;;;;18.52;10.48;;;19.10;51.00;;;;;;5102698;28;20111;-52
2023/12/05 01:54:18;;;;;;;19.10;10.57;;;19.10;51.30;;;;;;5102050;28;20035;-55
2023/12/05 01:56:44;;;;;;;22.33;10.43;;;19.10;50.90;;;;;;5091054;28;20380;-51
2023/12/05 01:59:10;;;;;;;19.70;10.00;;;19.10;51.10;;;;;;5090392;28;20480;-52
2023/12/05 02:01:37;;;;;;;17.45;10.43;;;19.10;51.30;;;;;;5090270;28;20024;-53
2023/12/05 02:04:04;;;;;;;19.88;11.00;;;19.10;51.10;;;;;;5091462;28;20382;-50
2023/12/05 02:06:30;;;;;;;19.90;10.18;;;19.10;51.00;;;;;;5090566;28;20028;-53
2023/12/05 02:08:57;;;;;;;16.60;9.98;;;19.10;51.10;;;;;;5090601;28;20392;-50
2023/12/05 02:11:23;;;;;;;17.70;9.73;;;19.10;51.70;;;;;;5091581;28;20024;-55
2023/12/05 02:13:49;;;;;;;17.67;10.63;;;19.10;51.40;;;;;;5090275;28;20035;-54
2023/12/05 02:16:21;;;;;;;17.55;10.18;;;19.10;51.00;;;;;;5089484;28;20036;-48
2023/12/05 02:18:56;;;;;;;19.35;10.52;;;19.10;50.60;;;;;;5090314;28;20028;-53
2023/12/05 02:21:29;;;;;;;16.90;10.32;;;19.10;50.90;;;;;;5091404;28;20020;-53
2023/12/05 02:24:00;;;;;;;17.52;11.02;;;19.10;50.80;;;;;;5089624;28;20026;-54
2023/12/05 02:26:51;;;;;;;19.38;11.02;;;19.10;50.90;;;;;;5090258;28;20453;-49
2023/12/05 02:29:17;;;;;;;18.05;9.90;;;19.10;51.30;;;;;;5090037;28;20039;-48
2023/12/05 02:31:43;;;;;;;21.00;10.85;;;19.00;50.80;;;;;;5090190;28;20028;-55
2023/12/05 02:34:09;;;;;;;21.27;10.45;;;19.10;50.90;;;;;;5091093;28;20407;-53
2023/12/05 02:37:03;;;;;;;16.95;10.07;;;19.00;51.20;;;;;;5089954;28;20081;-52
2023/12/05 02:39:52;;;;;;;16.50;10.23;;;19.00;50.90;;;;;;5070727;28;20115;-50
2023/12/05 02:42:23;;;;;;;16.40;10.03;;;19.00;51.00;;;;;;5090358;28;20031;-49
2023/12/05 02:44:51;;;;;;;17.52;10.13;;;19.00;50.90;;;;;;5089844;28;20158;-53
2023/12/05 02:47:22;;;;;;;18.40;10.82;;;19.10;50.80;;;;;;5091367;28;20048;-50
2023/12/05 02:49:48;;;;;;;17.17;10.38;;;19.10;50.50;;;;;;5090036;28;20032;-48
2023/12/05 02:52:20;;;;;;;15.80;10.05;;;19.00;50.70;;;;;;5089235;28;20430;-53
2023/12/05 02:54:45;;;;;;;16.23;9.70;;;19.10;50.70;;;;;;5093775;28;20039;-51
2023/12/05 02:57:11;;;;;;;18.70;9.68;;;19.00;50.80;;;;;;5093679;28;20113;-51
2023/12/05 02:59:37;;;;;;;18.13;9.98;;;19.00;50.90;;;;;;5093620;28;20059;-52
2023/12/05 03:02:03;;;;;;;18.73;9.82;;;19.00;50.60;;;;;;5093691;28;20024;-50
2023/12/05 03:04:30;;;;;;;17.52;10.18;;;19.00;50.60;;;;;;5093769;28;20016;-54
2023/12/05 03:06:56;;;;;;;18.77;9.40;;;19.00;50.90;;;;;;5093934;28;20027;-51
2023/12/05 03:09:21;;;;;;;15.30;9.27;;;19.10;50.90;;;;;;5093526;28;20085;-54
2023/12/05 03:11:47;;;;;;;19.15;10.38;;;19.00;50.80;;;;;;5092878;28;20028;-48
2023/12/05 03:14:13;;;;;;;20.35;9.95;;;19.00;50.80;;;;;;5093213;28;20020;-48
2023/12/05 03:16:39;;;;;;;17.02;9.43;;;19.00;50.80;;;;;;5094099;28;20024;-49
2023/12/05 03:19:05;;;;;;;16.60;9.23;;;19.00;50.70;;;;;;5093969;28;20392;-49
2023/12/05 03:21:31;;;;;;;16.52;9.45;;;19.00;51.10;;;;;;5092893;28;20024;-48
2023/12/05 03:23:56;;;;;;;16.38;9.48;;;19.00;50.90;;;;;;5093535;28;20060;-48
2023/12/05 03:26:23;;;;;;;17.02;9.57;;;19.00;51.30;;;;;;5092443;28;20020;-48
2023/12/05 03:28:49;;;;;;;16.80;9.90;;;19.00;51.00;;;;;;5093132;28;20483;-50
2023/12/05 03:31:16;;;;;;;15.90;9.25;;;19.00;51.70;;;;;;5094083;28;20491;-48
2023/12/05 03:33:42;;;;;;;20.30;10.48;;;19.00;50.80;;;;;;5093166;28;20028;-51
2023/12/05 03:36:08;;;;;;;16.80;9.70;;;19.00;51.10;;;;;;5093732;28;20028;-51
2023/12/05 03:38:36;;;;;;;15.48;9.77;;;19.00;51.20;;;;;;5092078;28;20035;-49
2023/12/05 03:41:02;;;;;;;18.63;10.13;;;19.00;50.80;;;;;;5093250;28;20024;-53
2023/12/05 03:43:27;;;;;;;17.10;9.40;;;19.00;50.80;;;;;;5092825;28;20406;-51
2023/12/05 03:45:53;;;;;;;16.92;10.18;;;19.00;50.60;;;;;;5092760;28;20292;-48
2023/12/05 03:48:19;;;;;;;16.60;10.07;;;19.00;50.70;;;;;;5093276;28;20026;-49
2023/12/05 03:50:45;;;;;;;16.20;9.73;;;18.90;50.60;;;;;;5093671;28;20050;-51
2023/12/05 03:53:11;;;;;;;16.23;9.95;;;18.90;50.90;;;;;;5092606;28;20082;-51
2023/12/05 03:55:36;;;;;;;16.20;9.43;;;19.00;50.70;;;;;;5092757;28;20024;-54
2023/12/05 03:58:02;;;;;;;15.30;9.38;;;19.00;51.40;;;;;;5091880;28;20028;-55
2023/12/05 04:00:28;;;;;;;18.08;10.13;;;18.90;50.70;;;;;;5092990;28;20391;-50
2023/12/05 04:02:55;;;;;;;15.15;9.32;;;18.90;51.00;;;;;;5092459;28;20040;-51
2023/12/05 04:05:20;;;;;;;17.30;9.95;;;18.90;50.30;;;;;;5092031;28;20080;-53
2023/12/05 04:07:46;;;;;;;17.13;10.48;;;18.90;50.30;;;;;;5091786;28;20433;-55
2023/12/05 04:10:12;;;;;;;15.75;9.57;;;18.90;51.40;;;;;;5092523;28;20489;-54
2023/12/05 04:12:39;;;;;;;16.75;9.90;;;18.90;50.70;;;;;;5091380;28;20116;-52
2023/12/05 04:15:06;;;;;;;15.52;9.65;;;18.90;50.60;;;;;;5092288;28;20024;-55
2023/12/05 04:17:32;;;;;;;16.73;9.55;;;18.90;50.30;;;;;;5091905;28;20119;-55
2023/12/05 04:19:58;;;;;;;13.82;9.68;;;18.90;51.10;;;;;;5093078;28;20124;-54
2023/12/05 04:22:24;;;;;;;17.98;10.35;;;18.90;50.50;;;;;;5092058;28;20123;-54
2023/12/05 04:24:50;;;;;;;17.33;9.85;;;18.90;50.40;;;;;;5092012;28;20028;-53
2023/12/05 04:27:15;;;;;;;16.02;9.73;;;18.90;50.50;;;;;;5091307;28;20035;-50
2023/12/05 04:29:42;;;;;;;16.67;10.00;;;18.90;50.70;;;;;;5092061;28;20028;-48
2023/12/05 04:32:08;;;;;;;16.45;9.77;;;18.90;50.30;;;;;;5092083;28;20024;-48
2023/12/05 04:34:35;;;;;;;18.95;9.95;;;18.90;50.60;;;;;;5091706;28;20032;-55
2023/12/05 04:37:01;;;;;;;16.30;9.70;;;18.90;51.10;;;;;;5088094;28;20034;-52
2023/12/05 04:39:26;;;;;;;15.30;9.00;;;18.90;50.60;;;;;;5091641;28;20028;-54
2023/12/05 04:41:52;;;;;;;15.13;9.18;;;18.90;51.00;;;;;;5092052;28;20081;-53
2023/12/05 04:44:18;;;;;;;16.77;9.73;;;18.90;51.00;;;;;;5090321;28;20024;-56
2023/12/05 04:46:44;;;;;;;16.90;10.00;;;18.90;51.30;;;;;;5097968;28;20580;-54
2023/12/05 04:49:09;;;;;;;17.75;10.27;;;18.90;51.20;;;;;;5091181;28;20467;-50
2023/12/05 04:51:35;;;;;;;18.05;9.75;;;18.90;50.80;;;;;;5092251;28;20440;-55
2023/12/05 04:54:01;;;;;;;18.15;10.50;;;18.90;51.10;;;;;;5092378;28;20047;-53
2023/12/05 04:56:27;;;;;;;17.25;9.75;;;18.90;50.40;;;;;;5091745;28;20059;-54
2023/12/05 04:58:53;;;;;;;16.05;9.70;;;18.90;51.10;;;;;;5091345;28;20034;-52
2023/12/05 05:01:19;;;;;;;16.13;9.88;;;18.90;50.90;;;;;;5091145;28;20475;-55
2023/12/05 05:03:44;;;;;;;16.58;9.45;;;18.90;50.80;;;;;;5085970;28;20387;-54
2023/12/05 05:06:11;;;;;;;18.30;9.32;;;18.90;51.10;;;;;;5091414;28;20449;-54
2023/12/05 05:08:36;;;;;;;17.88;9.75;;;18.90;51.10;;;;;;5090528;28;20430;-52
2023/12/05 05:11:02;;;;;;;16.52;9.48;;;18.90;50.80;;;;;;5091070;28;20030;-52
2023/12/05 05:13:28;;;;;;;16.15;9.45;;;18.90;50.90;;;;;;5089789;28;20380;-50
2023/12/05 05:15:54;;;;;;;17.35;10.32;;;18.90;51.20;;;;;;5090527;28;20028;-48
2023/12/05 05:18:20;;;;;;;16.73;9.65;;;18.90;50.90;;;;;;5090499;28;20064;-48
2023/12/05 05:20:45;;;;;;;19.00;9.82;;;18.90;50.80;;;;;;5090999;28;20114;-50
2023/12/05 05:23:11;;;;;;;16.15;9.40;;;18.90;50.70;;;;;;5091835;28;20032;-49
2023/12/05 05:25:37;;;;;;;18.30;9.55;;;18.90;50.90;;;;;;5092007;28;20032;-48
2023/12/05 05:28:03;;;;;;;16.35;9.70;;;18.90;52.00;;;;;;5090258;28;20291;-48
2023/12/05 05:30:29;;;;;;;16.00;9.55;;;18.90;50.90;;;;;;5091244;28;20035;-50
2023/12/05 05:32:54;;;;;;;15.18;9.63;;;18.90;51.30;;;;;;5090759;28;20111;-50
2023/12/05 05:35:20;;;;;;;16.48;9.70;;;18.90;50.60;;;;;;5090716;28;20505;-52
2023/12/05 05:37:46;;;;;;;17.55;9.40;;;18.90;51.10;;;;;;5090335;28;20110;-49
2023/12/05 05:40:12;;;;;;;16.20;9.10;;;18.90;51.10;;;;;;5089754;28;20178;-50
2023/12/05 05:42:37;;;;;;;16.52;9.95;;;18.90;50.80;;;;;;5090828;28;20125;-49
2023/12/05 05:45:05;;;;;;;16.15;9.57;;;18.90;50.10;;;;;;5089625;28;20026;-48
2023/12/05 05:47:31;;;;;;;16.80;9.23;;;18.90;51.00;;;;;;5088643;28;20055;-48
2023/12/05 05:49:57;;;;;;;17.08;9.80;;;18.90;51.10;;;;;;5089530;28;20028;-48
2023/12/05 05:52:23;;;;;;;17.77;10.00;;;18.90;50.60;;;;;;5091547;28;20059;-48
2023/12/05 05:54:50;;;;;;;17.60;9.55;;;18.90;51.00;;;;;;5091471;28;20491;-52
2023/12/05 05:57:16;;;;;;;17.92;9.48;;;18.90;51.10;;;;;;5090009;28;20445;-51
2023/12/05 05:59:43;;;;;;;17.77;9.40;;;18.90;50.70;;;;;;5090606;28;20552;-49
2023/12/05 06:02:11;;;;;;;17.58;9.90;;;18.90;50.80;;;;;;5089391;28;20020;-48
2023/12/05 06:04:41;;;;;;;16.58;9.40;;;18.90;50.60;;;;;;5090828;28;20027;-49
2023/12/05 06:07:07;;;;;;;14.70;9.15;;;18.90;51.30;;;;;;5090809;28;20145;-49
2023/12/05 06:09:33;;;;;;;15.63;9.70;;;18.90;50.40;;;;;;5090408;28;20103;-48
2023/12/05 06:11:59;;;;;;;14.60;9.25;;;18.90;50.30;;;;;;5090463;28;20031;-49
2023/12/05 06:14:25;;;;;;;17.02;10.25;;;18.90;50.40;;;;;;5091356;28;20104;-48
2023/12/05 06:16:51;;;;;;;16.90;9.60;;;18.90;50.10;;;;;;5090222;28;20085;-53
2023/12/05 06:19:17;;;;;;;18.38;10.27;;;18.90;50.70;;;;;;5089219;28;20051;-47
2023/12/05 06:21:42;;;;;;;15.93;9.30;;;18.90;50.10;;;;;;5090252;28;20105;-50
2023/12/05 06:24:08;;;;;;;18.90;10.07;;;18.90;50.20;;;;;;5091214;28;20441;-51
2023/12/05 06:26:34;;;;;;;15.65;9.02;;;18.90;50.80;;;;;;5091123;28;20020;-55
2023/12/05 06:29:05;;;;;;;16.02;8.73;;;18.90;51.00;;;;;;5093495;28;20028;-54
2023/12/05 06:31:31;;;;;;;16.80;10.05;;;18.90;50.60;;;;;;5094244;28;20016;-53
2023/12/05 06:33:58;;;;;;;14.40;9.20;;;18.90;50.30;;;;;;5093734;28;20170;-52
2023/12/05 06:36:23;;;;;;;18.23;9.65;;;18.90;50.60;;;;;;5092749;28;20028;-55
2023/12/05 06:38:49;;;;;;;15.18;9.25;;;18.90;50.40;;;;;;5094028;28;20095;-51
2023/12/05 06:41:15;;;;;;;16.08;9.40;;;18.90;50.90;;;;;;5094362;28;20052;-53
2023/12/05 06:43:41;;;;;;;16.60;9.02;;;18.90;51.10;;;;;;5093924;28;20074;-52
2023/12/05 06:46:07;;;;;;;16.33;8.80;;;18.90;50.60;;;;;;5093851;28;20027;-54
2023/12/05 06:48:33;;;;;;;14.25;9.35;;;18.90;51.30;;;;;;5090131;28;20525;-52
2023/12/05 06:50:59;;;;;;;17.25;9.20;;;18.90;50.80;;;;;;5092900;28;20028;-51
2023/12/05 06:53:24;;;;;;;15.75;9.52;;;18.90;50.90;;;;;;5093710;28;20059;-53
2023/12/05 06:55:50;;;;;;;16.67;9.73;;;18.80;50.50;;;;;;5093569;28;20111;-55
2023/12/05 06:58:16;;;;;;;16.08;9.43;;;18.80;50.60;;;;;;5089350;28;20042;-52
2023/12/05 07:00:42;;;;;;;16.58;9.65;;;18.90;50.60;;;;;;5092615;28;20484;-52
2023/12/05 07:03:08;;;;;;;17.60;9.73;;;18.90;50.70;;;;;;5094122;28;20148;-55
2023/12/05 07:05:34;;;;;;;16.10;9.50;;;18.90;50.70;;;;;;5092917;28;20507;-53
2023/12/05 07:08:03;;;;;;;20.10;9.52;;;18.90;51.30;;;;;;5091079;28;20028;-55
2023/12/05 07:10:29;;;;;;;17.83;9.98;;;18.90;51.30;;;;;;5089156;28;20490;-52
2023/12/05 07:12:55;;;;;;;17.35;9.05;;;18.90;50.00;;;;;;5094357;28;20066;-55
2023/12/05 07:15:21;;;;;;;17.73;9.43;;;18.90;52.20;;;;;;5094040;28;20040;-51
2023/12/05 07:17:47;;;;;;;22.13;9.38;;;18.90;51.80;;;;;;5094090;28;20032;-53
2023/12/05 07:20:13;;;;;;;20.60;10.45;;;19.00;50.50;;;;;;5087422;28;20073;-54
2023/12/05 07:22:39;;;;;;;16.38;9.45;;;19.10;52.10;;;;;;5086620;28;20084;-52
2023/12/05 07:25:05;;;;;;;18.17;9.80;;;19.20;52.40;;;;;;5090226;28;20024;-50
2023/12/05 07:27:31;;;;;;;20.52;10.48;;;19.20;51.70;;;;;;5090778;28;20054;-53
2023/12/05 07:29:57;;;;;;;25.10;10.30;;;19.20;52.10;;;;;;5083658;28;20107;-50
2023/12/05 07:32:23;;;;;;;24.48;13.38;;;19.20;51.90;;;;;;5088790;28;20123;-50
2023/12/05 07:34:52;;;;;;;19.90;11.32;;;19.20;51.40;;;;;;5091723;28;20173;-53
2023/12/05 07:37:18;;;;;;;24.50;12.60;;;19.20;53.00;;;;;;5081157;28;20103;-50
2023/12/05 07:39:44;;;;;;;23.27;11.40;;;19.30;53.10;;;;;;5077651;28;20027;-50
2023/12/05 07:42:10;;;;;;;27.50;11.43;;;19.40;53.20;;;;;;5082365;28;20031;-55
2023/12/05 07:44:35;;;;;;;20.63;9.73;;;19.40;54.40;;;;;;5079155;28;20396;-53
2023/12/05 07:47:01;;;;;;;27.05;12.15;;;19.30;53.70;;;;;;5079127;28;20059;-49
2023/12/05 07:49:27;;;;;;;24.92;10.95;;;19.30;54.10;;;;;;5083230;28;20081;-54
2023/12/05 07:51:53;;;;;;;25.35;10.93;;;19.30;55.20;;;;;;5091294;28;20024;-54
2023/12/05 07:54:19;;;;;;;24.55;11.43;;;19.40;55.20;;;;;;5085916;28;20052;-51
2023/12/05 07:56:44;;;;;;;20.40;10.23;;;19.40;55.70;;;;;;5082362;28;20522;-55
2023/12/05 07:59:10;;;;;;;25.08;10.75;;;19.40;55.70;;;;;;5090746;28;20032;-52
2023/12/05 08:01:36;;;;;;;28.67;12.05;;;19.30;55.70;;;;;;5082937;28;20031;-49
2023/12/05 08:04:02;;;;;;;21.10;11.48;;;19.50;59.10;;;;;;5088796;28;20027;-51
2023/12/05 08:06:28;;;;;;;20.73;10.38;;;19.50;57.30;;;;;;5092264;28;20020;-48
2023/12/05 08:08:54;;;;;;;22.15;9.68;;;19.50;56.30;;;;;;5095887;28;20016;-49
2023/12/05 08:11:21;;;;;;;19.90;10.20;;;19.50;55.50;;;;;;5095463;28;20039;-53
2023/12/05 08:13:47;;;;;;;24.20;9.80;;;19.50;56.60;;;;;;5077539;28;20150;-50
2023/12/05 08:16:13;;;;;;;20.67;9.60;;;19.60;56.00;;;;;;5092487;28;20088;-49
2023/12/05 08:18:39;;;;;;;21.88;9.80;;;19.60;55.80;;;;;;5082886;28;20024;-47
2023/12/05 08:21:06;;;;;;;28.58;10.02;;;19.60;55.90;;;;;;5090201;28;20028;-48
2023/12/05 08:23:32;;;;;;;21.70;10.10;;;19.70;55.60;;;;;;5085997;28;20020;-48
2023/12/05 08:25:57;;;;;;;21.90;9.63;;;19.70;54.90;;;;;;5088780;28;20020;-51
2023/12/05 08:28:23;;;;;;;24.70;10.55;;;19.70;54.90;;;;;;5086257;28;20570;-47
2023/12/05 08:30:49;;;;;;;18.70;10.45;;;19.70;54.30;;;;;;5088380;28;20447;-45
2023/12/05 08:33:15;;;;;;;23.27;11.30;;;19.70;54.60;;;;;;5089699;28;20058;-46
2023/12/05 08:35:41;;;;;;;20.33;10.40;;;19.70;53.90;;;;;;5085741;28;20062;-46
2023/12/05 08:38:06;;;;;;;18.63;10.32;;;19.70;53.70;;;;;;5095522;28;20094;-47
2023/12/05 08:40:32;;;;;;;19.80;10.55;;;19.70;53.70;;;;;;5093705;28;20028;-47
2023/12/05 08:42:58;;;;;;;22.25;10.68;;;19.70;53.90;;;;;;5091045;28;20139;-46
2023/12/05 08:45:24;;;;;;;22.33;10.52;;;19.70;53.90;;;;;;5094156;28;20414;-50
2023/12/05 08:47:54;;;;;;;21.00;10.00;;;19.70;53.60;;;;;;5097344;28;20108;-50
2023/12/05 08:50:21;;;;;;;17.60;9.27;;;19.70;53.80;;;;;;5092034;28;20036;-47
2023/12/05 08:52:47;;;;;;;19.83;10.68;;;19.70;53.70;;;;;;5092477;28;20032;-46
2023/12/05 08:55:14;;;;;;;20.52;9.52;;;19.70;53.80;;;;;;5089266;28;20113;-50
2023/12/05 08:57:40;;;;;;;20.13;9.95;;;19.70;53.60;;;;;;5091094;28;20357;-50
2023/12/05 09:00:06;;;;;;;18.20;9.70;;;19.70;53.70;;;;;;5096026;28;20519;-49
2023/12/05 09:02:32;;;;;;;22.38;10.70;;;19.70;53.70;;;;;;5092914;28;20021;-48
2023/12/05 09:04:58;;;;;;;17.05;9.93;;;19.60;53.70;;;;;;5094424;28;20055;-50
2023/12/05 09:07:24;;;;;;;16.90;9.38;;;19.70;53.80;;;;;;5095728;28;20051;-47
2023/12/05 09:09:49;;;;;;;22.73;9.20;;;19.60;53.80;;;;;;5082139;28;20028;-46
2023/12/05 09:12:15;;;;;;;19.38;9.95;;;19.70;54.10;;;;;;5080308;28;20031;-48
2023/12/05 09:14:42;;;;;;;21.55;10.60;;;19.60;53.90;;;;;;5080918;28;20032;-51
2023/12/05 09:17:09;;;;;;;18.38;9.73;;;19.60;53.80;;;;;;5081524;28;20036;-47
2023/12/05 09:19:35;;;;;;;20.00;9.82;;;19.60;53.60;;;;;;5081549;28;20123;-51
2023/12/05 09:22:02;;;;;;;17.90;9.55;;;19.60;53.80;;;;;;5076278;28;20115;-46
2023/12/05 09:24:28;;;;;;;19.90;10.13;;;19.60;54.00;;;;;;5081199;28;20031;-46
2023/12/05 09:26:54;;;;;;;19.60;10.25;;;19.60;53.50;;;;;;5081978;28;20538;-51
2023/12/05 09:29:21;;;;;;;16.50;9.75;;;19.60;54.30;;;;;;5080112;28;20031;-47
2023/12/05 09:31:46;;;;;;;19.65;10.25;;;19.60;54.20;;;;;;5077979;28;20514;-51
2023/12/05 09:34:12;;;;;;;20.25;9.80;;;19.60;54.20;;;;;;5078479;28;20028;-46
2023/12/05 09:36:38;;;;;;;19.83;9.75;;;19.60;53.90;;;;;;5081409;28;20081;-46
2023/12/05 09:39:04;;;;;;;19.75;10.77;;;19.60;53.60;;;;;;5080987;28;20444;-50
2023/12/05 09:41:35;;;;;;;17.80;9.32;;;19.60;53.50;;;;;;5076791;28;20024;-46
2023/12/05 09:44:01;;;;;;;17.10;10.48;;;19.60;53.30;;;;;;5076722;28;20108;-47
2023/12/05 09:46:29;;;;;;;17.20;10.52;;;19.60;53.20;;;;;;5078331;28;20106;-50
2023/12/05 09:49:00;;;;;;;18.27;10.02;;;19.60;53.20;;;;;;5076325;28;20020;-50
2023/12/05 09:51:26;;;;;;;17.23;9.98;;;19.50;53.40;;;;;;5076183;28;20095;-48
2023/12/05 09:53:55;;;;;;;17.50;10.05;;;19.60;53.10;;;;;;5077837;28;20055;-48
2023/12/05 09:56:22;;;;;;;22.63;9.55;;;19.60;53.10;;;;;;5080538;28;20032;-51
2023/12/05 09:58:48;;;;;;;18.00;9.95;;;19.50;53.20;;;;;;5081094;28;20024;-54
2023/12/05 10:01:16;;;;;;;21.70;12.20;;;19.60;53.30;;;;;;5076283;28;20035;-47
2023/12/05 10:03:44;;;;;;;22.40;11.25;;;19.50;53.10;;;;;;5075984;28;20104;-47
2023/12/05 10:06:11;;;;;;;19.77;11.07;;;19.50;53.20;;;;;;5077769;28;20038;-47
2023/12/05 10:08:38;;;;;;;20.88;12.80;;;19.50;52.90;;;;;;5070043;28;20113;-47
2023/12/05 10:11:09;;;;;;;25.45;12.93;;;19.50;52.40;;;;;;5081002;28;20028;-47
2023/12/05 10:13:38;;;;;;;18.67;11.77;;;19.50;52.70;;;;;;5072597;28;20031;-49
2023/12/05 10:16:06;;;;;;;21.92;12.80;;;19.50;52.70;;;;;;5080772;28;20055;-49
2023/12/05 10:18:33;;;;;;;20.58;12.27;;;19.50;52.40;;;;;;5080276;28;20089;-49
2023/12/05 10:20:59;;;;;;;23.05;12.90;;;19.50;52.30;;;;;;5080778;28;20065;-52
2023/12/05 10:23:25;;;;;;;24.80;12.13;;;19.50;52.40;;;;;;5078888;28;20032;-53
2023/12/05 10:25:52;;;;;;;22.00;12.45;;;19.50;52.30;;;;;;5077476;28;20029;-52
2023/12/05 10:28:17;;;;;;;22.15;12.35;;;19.50;52.10;;;;;;5077102;28;20487;-44
2023/12/05 10:30:43;;;;;;;21.30;12.32;;;19.50;52.20;;;;;;5077611;28;20035;-49
2023/12/05 10:33:11;;;;;;;20.30;12.38;;;19.50;52.30;;;;;;5077644;28;20418;-48
2023/12/05 10:35:37;;;;;;;22.63;13.50;;;19.50;52.50;;;;;;5072552;28;20021;-48
2023/12/05 10:38:11;;;;;;;21.83;12.65;;;19.40;52.10;;;;;;5080372;28;20511;-53
2023/12/05 10:40:49;;;;;;;20.15;11.90;;;19.50;52.00;;;;;;5080653;28;20020;-52
2023/12/05 10:43:16;;;;;;;20.15;11.13;;;19.40;52.00;;;;;;5079476;28;20395;-47
2023/12/05 10:45:42;;;;;;;18.83;10.98;;;19.50;51.80;;;;;;5077320;28;20036;-52
2023/12/05 10:48:07;;;;;;;20.25;11.85;;;19.40;51.90;;;;;;5076961;28;20104;-50
2023/12/05 10:50:33;;;;;;;18.13;10.95;;;19.40;51.60;;;;;;5072406;28;20103;-47
2023/12/05 10:53:00;;;;;;;19.70;10.65;;;19.40;51.60;;;;;;5062824;28;20100;-49
2023/12/05 10:55:25;;;;;;;18.95;12.00;;;19.50;51.70;;;;;;5078648;28;20032;-51
2023/12/05 10:57:51;;;;;;;19.88;10.95;;;19.50;51.50;;;;;;5077142;28;20024;-49
2023/12/05 11:00:18;;;;;;;18.90;11.00;;;19.50;51.60;;;;;;5077794;28;20387;-51
2023/12/05 11:02:48;;;;;;;19.95;11.48;;;19.50;51.40;;;;;;5080301;28;20040;-48
2023/12/05 11:05:14;;;;;;;18.88;11.45;;;19.40;51.40;;;;;;5080029;28;20024;-50
2023/12/05 11:07:40;;;;;;;19.05;11.32;;;19.40;51.30;;;;;;5076740;28;20029;-51
2023/12/05 11:10:07;;;;;;;18.45;11.07;;;19.50;51.30;;;;;;5076934;28;20032;-48
2023/12/05 11:12:36;;;;;;;21.42;11.23;;;19.50;51.20;;;;;;5080094;28;20030;-48
2023/12/05 11:15:03;;;;;;;19.35;11.23;;;19.40;51.80;;;;;;5081654;28;20445;-51
2023/12/05 11:17:36;;;;;;;18.27;10.68;;;19.40;53.20;;;;;;5081134;28;20043;-49
2023/12/05 11:20:23;;;;;;;19.88;11.82;;;19.50;52.30;;;;;;5077591;28;20027;-54
2023/12/05 11:23:18;;;;;;;22.42;10.93;;;19.50;52.40;;;;;;5077099;28;20058;-47
2023/12/05 11:25:52;;;;;;;21.73;10.68;;;19.50;52.30;;;;;;5082698;28;20063;-51
2023/12/05 11:28:35;;;;;;;23.33;11.68;;;19.50;52.90;;;;;;5081349;28;20034;-51
2023/12/05 11:31:00;;;;;;;22.05;11.20;;;19.50;52.80;;;;;;5078967;28;20559;-52
2023/12/05 11:34:04;;;;;;;18.35;10.55;;;19.50;52.20;;;;;;5081566;28;20043;-53
2023/12/05 11:36:39;;;;;;;20.55;11.48;;;19.60;52.40;;;;;;5080064;28;20035;-47
2023/12/05 11:39:06;;;;;;;22.42;11.13;;;19.60;52.80;;;;;;5078956;28;20099;-50
2023/12/05 11:41:32;;;;;;;19.95;10.60;;;19.60;54.60;;;;;;5080796;28;20020;-50
2023/12/05 11:44:13;;;;;;;22.15;10.77;;;19.60;53.70;;;;;;5080227;28;20450;-49
2023/12/05 11:46:46;;;;;;;20.70;10.85;;;19.70;53.70;;;;;;5074932;28;20039;-52
2023/12/05 11:49:27;;;;;;;18.27;10.30;;;19.60;54.30;;;;;;5082906;28;20032;-51
2023/12/05 11:51:52;;;;;;;16.45;9.77;;;19.60;54.60;;;;;;5076911;28;20032;-54
2023/12/05 11:54:21;;;;;;;17.45;10.23;;;19.60;54.50;;;;;;5082387;28;20031;-47
2023/12/05 11:56:47;;;;;;;18.98;10.25;;;19.60;54.30;;;;;;5079879;28;20035;-49
2023/12/05 11:59:16;;;;;;;20.17;9.65;;;19.60;54.30;;;;;;5079552;28;20020;-51
2023/12/05 12:01:42;;;;;;;19.35;10.07;;;19.60;54.30;;;;;;5081700;28;20078;-47
2023/12/05 12:04:22;;;;;;;18.25;9.60;;;19.50;54.30;;;;;;5083048;28;20028;-51
2023/12/05 12:06:48;;;;;;;;;;;19.50;54.30;;;;;;5076484;28;20035;-46
2023/12/05 12:09:14;;;;;;;18.27;9.65;;;19.60;54.10;;;;;;5082653;28;19953;-48
2023/12/05 12:11:41;;;;;;;18.05;9.85;;;19.50;54.00;;;;;;5079735;28;20040;-48
2023/12/05 12:14:18;;;;;;;16.70;9.60;;;19.50;53.90;;;;;;5078955;28;20024;-48
2023/12/05 12:16:45;;;;;;;17.55;9.25;;;19.50;53.70;;;;;;5082375;28;20034;-48
2023/12/05 12:19:12;;;;;;;16.15;9.02;;;19.50;53.80;;;;;;5082488;28;20039;-49
2023/12/05 12:21:38;;;;;;;19.98;9.43;;;19.50;53.70;;;;;;5074337;28;20526;-50
2023/12/05 12:24:05;;;;;;;17.50;9.60;;;19.50;53.50;;;;;;5089951;28;20059;-47
2023/12/05 12:26:34;;;;;;;15.55;9.52;;;19.50;54.00;;;;;;5079338;28;20028;-50
2023/12/05 12:29:07;;;;;;;15.73;9.38;;;19.50;53.50;;;;;;5078703;28;20028;-46
2023/12/05 12:31:33;;;;;;;17.90;9.23;;;19.50;53.50;;;;;;5079302;28;20040;-52